Eau Gallie, Florida
Current Conditions -  °F | °C
As of 10:53 AM on Saturday 22 Nov 2014 (Local Time) from KMLB Reporting Station
Overcast Overcast  
Wind Chill: 74°   Ceiling: 3400
Heat Index: 74°   Visibility: 10mi
Dew Point: 65°   Wind: 16mph
Humidity: 73%   Direction: 90°E
Pressure: 30.25"   Gusts: NA
Location:  28.1289°N, 80.6306°W
Report Text: KMLB 221553Z 09014KT 10SM OVC034 23/18 A3025 RMK AO2 SLP241 T02330183
Loading
Personal Weather Stations






























Interactive Weather Map New forecast layout! Learn more

10-Day Weather Forecast

Advertisements
Track Severe Weather on mobile